aviador You're here:

EVRA Decoded Metar

RIGA AIRPORT in LATVIA
Report Time2018-04-25 13:50:00
UTC Time2018-04-25 14:14:06
Flight Rules vfr VFR
Wind210° at 09 kt
W.Decomp.*RWY 18: 8.3 kt HW 3.5 kt RCW
W.Rank210° ranks 2
Current wind is above 210° avg. (6.5)
Visibility9999 m
Phenomena:Light Rain
Clouds:Broken 041 Hf
Expected CloudBase > 1,200 ft AGL from Temp-Dew spread
Ceiling4,100 ft
Temp09°C (ISA -6)
Dew Point06°C (82% RH)
AAT4.9°C
QNH1001 hPa
Density Alt-141 ft
Elevation33 ft
Report Wrong Elevation
Raw Report
METAR EVRA 251350Z 21009KT 9999 -RA BKN041 09/06 Q1001 NOSIG=

Extra information for EVRA:More info

Metar Taf Metar & Taf Last 4 Metars F.Rules Stats Wind Profile Meteogram Temp Stats Airport Information Weather charts Add Link Nearby VenuesMetar ALERT Operation Metar Decoded Social comments